Time;durP1;ratioP1;P1;durP2;ratioP2;P2;SDS_P1;SDS_P2;PMS_P1;PMS_P2;Temp;Humidity;BMP_temperature;BMP_pressure;BME280_temperature;BME280_humidity;BME280_pressure;Samples;Min_cycle;Max_cycle;Signal;HPM_P1;HPM_P2
2022/06/16 00:01:39;;;;;;;6.90;3.70;;;;;;;12.08;71.06;96993.77;107261;1267;164714;-79
2022/06/16 00:04:10;;;;;;;6.70;3.60;;;;;;;12.08;71.08;96993.59;107339;1267;77900;-78
2022/06/16 00:06:42;;;;;;;8.20;3.90;;;;;;;12.04;71.06;96991.20;107025;1270;168188;-78
2022/06/16 00:09:13;;;;;;;7.50;4.00;;;;;;;11.95;71.23;96992.59;107301;1267;82980;-78
2022/06/16 00:11:44;;;;;;;7.30;3.80;;;;;;;11.90;71.37;96992.41;106859;1267;177223;-79
2022/06/16 00:14:15;;;;;;;6.00;3.50;;;;;;;11.92;71.50;96989.32;107209;1267;96360;-79
2022/06/16 00:16:47;;;;;;;6.10;3.90;;;;;;;11.96;71.61;96989.07;106995;1267;188434;-79
2022/06/16 00:19:18;;;;;;;6.20;3.80;;;;;;;12.00;71.63;96991.60;107234;1267;90387;-79
2022/06/16 00:21:49;;;;;;;4.40;3.10;;;;;;;12.01;71.66;96994.41;107003;1267;181876;-78
2022/06/16 00:24:26;;;;;;;8.40;3.60;;;;;;;12.03;71.56;96990.63;107662;1267;48748;-79
2022/06/16 00:26:58;;;;;;;8.30;3.90;;;;;;;12.05;71.57;96991.56;107423;1267;164853;-78
2022/06/16 00:29:33;;;;;;;7.20;3.70;;;;;;;12.09;71.57;96991.04;107444;1267;135511;-79
2022/06/16 00:32:07;;;;;;;8.20;4.40;;;;;;;12.12;71.39;96989.70;107788;1267;37146;-79
2022/06/16 00:34:38;;;;;;;5.50;3.30;;;;;;;12.14;71.31;96991.50;107410;1267;133508;-79
2022/06/16 00:37:10;;;;;;;5.50;2.80;;;;;;;12.11;71.24;96990.04;107606;1267;158987;-77
2022/06/16 00:39:41;;;;;;;8.40;3.30;;;;;;;11.94;71.21;96990.04;107110;1267;189905;-78
2022/06/16 00:42:17;;;;;;;6.90;3.70;;;;;;;11.80;71.60;96988.06;107626;1267;70337;-78
2022/06/16 00:44:51;;;;;;;4.80;3.50;;;;;;;11.69;72.14;96984.08;105903;1267;1795356;-78
2022/06/16 00:47:24;;;;;;;6.80;3.70;;;;;;;11.67;72.49;96984.35;107613;1267;99408;-78
2022/06/16 00:49:58;;;;;;;9.40;3.50;;;;;;;11.67;72.67;96983.41;107319;1267;185909;-79
2022/06/16 00:52:33;;;;;;;5.30;2.90;;;;;;;11.54;72.85;96984.23;107568;1267;109963;-78
2022/06/16 00:55:11;;;;;;;9.70;5.00;;;;;;;11.32;73.21;96980.89;107723;1267;37394;-78
2022/06/16 00:57:45;;;;;;;6.00;3.60;;;;;;;11.19;73.81;96975.48;107521;1267;103322;-78
2022/06/16 01:00:21;;;;;;;8.50;4.30;;;;;;;11.28;74.09;96976.14;107327;1267;227780;-78
2022/06/16 01:02:52;;;;;;;5.90;4.00;;;;;;;11.36;74.23;96969.98;107146;1268;208399;-78
2022/06/16 01:05:24;;;;;;;6.50;3.90;;;;;;;11.42;74.08;96969.91;107516;1268;109669;-79
2022/06/16 01:07:58;;;;;;;6.20;3.50;;;;;;;11.41;73.98;96969.98;106797;1268;219605;-78
2022/06/16 01:10:37;;;;;;;6.20;4.00;;;;;;;11.45;74.07;96966.91;107274;1268;183515;-78
2022/06/16 01:13:45;;;;;;;5.10;3.60;;;;;;;11.49;74.05;96966.14;105867;1268;1706931;-78
2022/06/16 01:16:26;;;;;;;5.60;3.40;;;;;;;11.52;74.04;96963.99;107620;1268;35687;-78
2022/06/16 01:19:11;;;;;;;6.00;3.50;;;;;;;11.47;74.09;96963.24;106776;1269;207718;-78
2022/06/16 01:21:58;;;;;;;7.60;3.40;;;;;;;11.40;74.46;96962.74;107370;1267;105110;-78
2022/06/16 01:24:49;;;;;;;5.20;3.00;;;;;;;11.43;74.73;96962.25;107129;1268;163123;-78
2022/06/16 01:28:07;;;;;;;6.90;3.40;;;;;;;11.57;74.61;96962.02;107262;1268;69840;-79
2022/06/16 01:30:45;;;;;;;7.10;3.30;;;;;;;11.67;74.62;96958.28;107388;1273;56940;-78
2022/06/16 01:33:25;;;;;;;8.30;4.20;;;;;;;11.82;74.30;96959.69;105967;1273;1897700;-78
2022/06/16 01:36:04;;;;;;;8.40;4.80;;;;;;;11.87;73.94;96954.29;106345;1267;1260951;-79
2022/06/16 01:38:46;;;;;;;7.50;4.50;;;;;;;11.91;73.75;96951.59;107575;1267;173747;-78
2022/06/16 01:41:25;;;;;;;8.70;4.20;;;;;;;11.93;73.49;96955.84;107033;1267;158927;-78
2022/06/16 01:44:04;;;;;;;8.40;4.70;;;;;;;11.92;73.38;96959.56;107585;1267;107240;-78
2022/06/16 01:46:42;;;;;;;6.60;3.80;;;;;;;11.92;73.39;96956.90;107359;1268;193317;-78
2022/06/16 01:49:19;;;;;;;5.50;3.30;;;;;;;11.91;73.33;96953.08;107606;1268;36067;-78
2022/06/16 01:51:58;;;;;;;5.30;3.30;;;;;;;11.94;73.14;96954.54;105702;1267;1880247;-78
2022/06/16 01:54:35;;;;;;;4.40;3.00;;;;;;;11.97;73.04;96950.81;107255;1267;80741;-78
2022/06/16 01:57:10;;;;;;;6.80;3.20;;;;;;;12.01;72.93;96954.56;107182;1268;174819;-78
2022/06/16 01:59:46;;;;;;;6.90;3.90;;;;;;;12.06;72.81;96952.05;107242;1267;162172;-77
2022/06/16 02:02:20;;;;;;;6.00;3.30;;;;;;;12.07;72.73;96951.09;105970;1268;1564512;-78
2022/06/16 02:04:55;;;;;;;6.40;3.60;;;;;;;12.16;72.82;96949.52;107340;1267;80724;-78
2022/06/16 02:07:33;;;;;;;4.70;3.00;;;;;;;12.30;72.58;96949.23;106943;1267;211800;-79
2022/06/16 02:10:09;;;;;;;5.30;3.20;;;;;;;12.38;72.37;96944.90;107245;1267;119110;-78
2022/06/16 02:12:56;;;;;;;6.70;3.40;;;;;;;12.41;72.24;96947.12;106944;1268;152203;-78
2022/06/16 02:15:46;;;;;;;5.30;3.30;;;;;;;12.46;72.07;96948.92;107268;1268;93199;-78
2022/06/16 02:18:21;;;;;;;7.00;3.20;;;;;;;12.48;71.91;96950.55;107044;1267;127458;-79
2022/06/16 02:20:58;;;;;;;6.50;3.70;;;;;;;12.49;71.86;96949.73;107216;1268;90589;-78
2022/06/16 02:23:30;;;;;;;6.20;3.60;;;;;;;12.51;71.85;96946.27;106970;1268;185715;-78
2022/06/16 02:26:02;;;;;;;6.40;3.40;;;;;;;12.51;71.81;96948.27;107217;1267;115308;-79
2022/06/16 02:28:44;;;;;;;5.10;3.60;;;;;;;12.51;71.69;96954.77;107103;1267;114487;-79
2022/06/16 02:31:30;;;;;;;6.30;3.30;;;;;;;12.50;71.68;96956.27;107212;1268;95187;-78
2022/06/16 02:34:11;;;;;;;5.80;3.90;;;;;;;12.48;71.57;96951.66;107099;1267;132608;-78
2022/06/16 02:36:56;;;;;;;7.40;4.10;;;;;;;12.46;71.55;96953.02;107180;1268;85082;-78
2022/06/16 02:39:39;;;;;;;6.80;3.70;;;;;;;12.45;71.54;96957.12;107128;1268;143429;-79
2022/06/16 02:42:17;;;;;;;5.80;4.10;;;;;;;12.46;71.54;96955.89;107148;1268;96893;-78
2022/06/16 02:45:00;;;;;;;5.90;3.80;;;;;;;12.52;71.77;96957.21;107035;1268;159408;-78
2022/06/16 02:47:47;;;;;;;4.90;3.50;;;;;;;12.59;71.56;96960.55;107162;1268;171882;-78
2022/06/16 02:50:30;;;;;;;6.00;3.40;;;;;;;12.63;71.52;96962.83;107134;1268;139986;-78
2022/06/16 02:53:13;;;;;;;4.80;4.00;;;;;;;12.66;71.50;96960.84;107256;1268;113120;-78
2022/06/16 02:55:49;;;;;;;14.60;3.00;;;;;;;12.68;71.38;96958.91;105980;1268;1378655;-78
2022/06/16 02:58:22;;;;;;;6.60;3.60;;;;;;;12.70;71.36;96958.70;107219;1268;122324;-79
2022/06/16 03:00:56;;;;;;;4.60;3.60;;;;;;;12.69;71.29;96960.34;107048;1268;142559;-78
2022/06/16 03:03:32;;;;;;;6.90;3.70;;;;;;;12.70;71.25;96960.77;106934;1267;132381;-78
2022/06/16 03:06:04;;;;;;;5.10;3.30;;;;;;;12.72;71.20;96960.83;107552;1270;54819;-78
2022/06/16 03:08:43;;;;;;;5.50;3.60;;;;;;;12.78;71.23;96955.76;106000;1267;2124102;-78
2022/06/16 03:11:14;;;;;;;5.40;3.80;;;;;;;12.83;71.18;96951.73;107609;1268;82919;-78
2022/06/16 03:13:46;;;;;;;4.90;4.00;;;;;;;12.91;70.95;96949.06;107367;1268;97621;-78
2022/06/16 03:16:17;;;;;;;7.20;4.20;;;;;;;12.97;70.86;96951.36;107667;1268;39133;-78
2022/06/16 03:18:49;;;;;;;6.10;3.40;;;;;;;13.01;70.78;96952.73;107535;1267;157555;-79
2022/06/16 03:21:21;;;;;;;6.20;3.50;;;;;;;13.08;70.88;96948.11;107459;1268;115089;-78
2022/06/16 03:23:52;;;;;;;5.10;3.40;;;;;;;13.25;70.77;96950.23;107620;1268;94540;-78
2022/06/16 03:26:23;;;;;;;4.70;3.00;;;;;;;13.37;70.41;96949.63;107492;1268;75985;-78
2022/06/16 03:28:54;;;;;;;5.50;3.60;;;;;;;13.56;70.05;96949.48;107621;1267;36831;-78
2022/06/16 03:31:26;;;;;;;6.30;3.80;;;;;;;13.65;69.71;96948.48;107352;1267;109506;-78
2022/06/16 03:33:57;;;;;;;7.50;3.30;;;;;;;13.65;69.38;96950.45;107641;1268;38486;-78
2022/06/16 03:36:29;;;;;;;6.90;4.10;;;;;;;13.67;69.28;96946.17;107306;1267;142218;-78
2022/06/16 03:39:01;;;;;;;6.00;3.30;;;;;;;13.71;69.01;96945.11;107459;1268;166209;-78
2022/06/16 03:41:32;;;;;;;7.00;3.60;;;;;;;13.73;68.88;96946.58;107385;1268;157098;-79
2022/06/16 03:44:03;;;;;;;7.40;3.40;;;;;;;13.73;68.87;96944.23;107612;1268;49807;-79
2022/06/16 03:46:35;;;;;;;5.80;3.40;;;;;;;13.76;68.70;96941.29;107315;1268;165156;-78
2022/06/16 03:49:06;;;;;;;7.00;3.60;;;;;;;13.83;68.55;96937.73;107722;1267;43882;-78
2022/06/16 03:51:37;;;;;;;5.40;3.40;;;;;;;13.93;68.38;96940.55;107541;1268;108908;-79
2022/06/16 03:54:09;;;;;;;6.80;3.70;;;;;;;13.99;68.25;96934.69;107750;1268;37192;-79
2022/06/16 03:56:41;;;;;;;7.50;3.50;;;;;;;14.05;68.34;96939.02;107528;1268;131521;-79
2022/06/16 03:59:13;;;;;;;5.10;3.50;;;;;;;14.12;68.15;96937.85;107539;1268;148402;-78
2022/06/16 04:01:44;;;;;;;4.60;3.20;;;;;;;14.20;68.17;96941.59;107408;1268;97651;-78
2022/06/16 04:04:15;;;;;;;5.00;3.30;;;;;;;14.29;68.07;96935.63;107523;1268;95299;-78
2022/06/16 04:06:47;;;;;;;5.80;3.80;;;;;;;14.42;67.86;96937.77;107640;1268;33840;-78
2022/06/16 04:09:18;;;;;;;7.60;3.50;;;;;;;14.54;67.39;96935.27;107536;1267;107986;-79
2022/06/16 04:11:49;;;;;;;6.70;3.30;;;;;;;14.76;67.08;96929.25;107548;1267;109257;-79
2022/06/16 04:14:21;;;;;;;5.70;3.20;;;;;;;14.96;66.34;96925.64;106805;1268;131939;-78
2022/06/16 04:16:54;;;;;;;8.60;3.30;;;;;;;15.18;66.04;96926.30;107200;1268;121009;-78
2022/06/16 04:19:26;;;;;;;3.90;3.10;;;;;;;15.37;65.84;96931.01;107154;1268;109411;-78
2022/06/16 04:21:57;;;;;;;6.10;3.40;;;;;;;15.49;65.41;96932.43;107321;1267;74649;-78
2022/06/16 04:24:29;;;;;;;5.00;3.00;;;;;;;15.53;64.99;96932.22;107091;1268;131174;-78
2022/06/16 04:27:00;;;;;;;4.50;3.10;;;;;;;15.60;64.71;96935.55;106089;1268;1717002;-79
2022/06/16 04:29:31;;;;;;;5.00;3.00;;;;;;;15.68;64.61;96933.30;107615;1268;36652;-78
2022/06/16 04:32:04;;;;;;;5.60;3.10;;;;;;;15.79;64.53;96931.70;107114;1267;134275;-78
2022/06/16 04:34:35;;;;;;;7.20;2.80;;;;;;;15.90;64.03;96932.13;107506;1268;116885;-78
2022/06/16 04:37:07;;;;;;;5.00;3.20;;;;;;;16.01;63.91;96926.62;107104;1267;245110;-78
2022/06/16 04:39:38;;;;;;;5.00;2.90;;;;;;;16.14;63.65;96925.78;107693;1267;33990;-78
2022/06/16 04:42:10;;;;;;;5.70;2.80;;;;;;;16.22;63.16;96926.70;106398;1267;1551586;-78
2022/06/16 04:44:41;;;;;;;5.20;2.90;;;;;;;16.20;62.19;96922.38;107579;1268;42931;-77
2022/06/16 04:47:13;;;;;;;4.10;2.80;;;;;;;16.20;61.93;96924.98;107349;1268;158863;-78
2022/06/16 04:49:48;;;;;;;3.90;2.90;;;;;;;16.20;61.38;96922.15;107611;1268;40045;-79
2022/06/16 04:52:20;;;;;;;5.10;3.20;;;;;;;16.20;61.43;96926.81;107444;1268;116150;-79
2022/06/16 04:54:52;;;;;;;4.00;3.30;;;;;;;16.19;61.12;96925.23;107179;1267;137847;-78
2022/06/16 04:57:23;;;;;;;6.20;3.00;;;;;;;16.22;61.17;96925.23;107223;1268;84257;-78
2022/06/16 04:59:55;;;;;;;4.20;2.50;;;;;;;16.20;60.89;96926.59;107169;1268;91745;-78
2022/06/16 05:02:26;;;;;;;4.80;3.00;;;;;;;16.17;60.83;96920.14;107205;1268;106097;-78
2022/06/16 05:04:58;;;;;;;4.70;2.90;;;;;;;16.20;61.31;96919.26;107134;1267;119559;-79
2022/06/16 05:07:29;;;;;;;3.80;2.70;;;;;;;16.27;60.69;96921.48;107188;1268;130503;-79
2022/06/16 05:10:01;;;;;;;6.70;3.40;;;;;;;16.34;60.23;96918.95;107020;1268;150517;-78
2022/06/16 05:12:32;;;;;;;5.10;3.20;;;;;;;16.50;60.08;96914.58;107650;1268;37798;-79
2022/06/16 05:15:04;;;;;;;4.30;2.90;;;;;;;16.75;59.78;96916.81;107244;1268;187625;-78
2022/06/16 05:17:35;;;;;;;6.30;3.20;;;;;;;16.92;59.67;96917.09;107666;1268;35401;-79
2022/06/16 05:20:07;;;;;;;5.20;3.30;;;;;;;17.25;59.49;96914.42;106303;1268;1837123;-78
2022/06/16 05:22:39;;;;;;;5.20;2.90;;;;;;;17.78;58.96;96918.48;107697;1269;32815;-79
2022/06/16 05:25:11;;;;;;;3.90;2.90;;;;;;;19.22;57.92;96912.30;107712;1268;44213;-79
2022/06/16 05:27:42;;;;;;;4.90;2.90;;;;;;;20.95;54.15;96908.23;107627;1268;34717;-78
2022/06/16 05:30:14;;;;;;;6.50;2.80;;;;;;;22.01;51.51;96914.30;107605;1268;73440;-78
2022/06/16 05:32:46;;;;;;;6.20;2.80;;;;;;;23.18;47.58;96912.30;107369;1268;137066;-78
2022/06/16 05:35:18;;;;;;;4.80;3.00;;;;;;;23.77;46.27;96912.40;107587;1267;120410;-79
2022/06/16 05:37:49;;;;;;;4.70;2.60;;;;;;;24.57;46.03;96908.98;107081;1268;136910;-79
2022/06/16 05:40:21;;;;;;;5.70;2.60;;;;;;;25.19;42.95;96904.94;107668;1268;42329;-79
2022/06/16 05:42:52;;;;;;;4.90;2.50;;;;;;;23.85;42.62;96910.31;107458;1268;106179;-78
2022/06/16 05:45:24;;;;;;;4.10;2.50;;;;;;;23.91;44.14;96907.29;107522;1268;112160;-79
2022/06/16 05:47:55;;;;;;;5.50;3.30;;;;;;;23.55;43.16;96901.88;105526;1268;2561252;-79
2022/06/16 05:50:29;;;;;;;3.80;2.50;;;;;;;23.07;44.96;96903.45;107617;1268;38680;-80
2022/06/16 05:53:00;;;;;;;5.10;2.50;;;;;;;24.71;43.11;96899.45;107281;1270;140791;-80
2022/06/16 05:55:32;;;;;;;4.80;2.50;;;;;;;25.34;41.54;96895.85;107609;1268;35494;-80
2022/06/16 05:58:04;;;;;;;4.00;2.70;;;;;;;24.66;41.18;96899.73;107416;1268;99528;-79
2022/06/16 06:00:35;;;;;;;4.70;2.20;;;;;;;23.99;42.23;96903.19;107537;1267;165593;-79
2022/06/16 06:03:07;;;;;;;3.90;1.90;;;;;;;23.47;42.73;96901.11;107554;1267;104044;-79
2022/06/16 06:05:39;;;;;;;4.20;2.60;;;;;;;22.46;43.06;96906.05;107674;1268;33625;-79
2022/06/16 06:16:52;;;;;;;2.70;2.10;;;;;;;25.83;43.54;96898.77;105525;1271;2041597;-79
2022/06/16 06:19:26;;;;;;;4.70;2.20;;;;;;;27.44;40.97;96901.77;106993;1267;161594;-80
2022/06/16 06:22:06;;;;;;;4.00;2.40;;;;;;;28.58;37.70;96898.85;107349;1268;75707;-79
2022/06/16 06:24:40;;;;;;;4.70;2.10;;;;;;;29.12;36.96;96896.91;107560;1270;103883;-79
2022/06/16 06:27:16;;;;;;;3.00;2.30;;;;;;;29.57;34.79;96894.65;107544;1268;90136;-78
2022/06/16 06:29:49;;;;;;;3.60;2.10;;;;;;;29.30;33.98;96896.17;107441;1267;114485;-79
2022/06/16 06:32:23;;;;;;;2.60;1.80;;;;;;;29.36;34.72;96898.66;107568;1270;75487;-79
2022/06/16 06:34:55;;;;;;;4.20;1.90;;;;;;;29.97;34.44;96896.44;106071;1267;1781183;-79
2022/06/16 06:37:28;;;;;;;2.90;1.70;;;;;;;30.76;32.87;96897.76;107383;1270;159263;-79
2022/06/16 06:40:00;;;;;;;2.80;1.90;;;;;;;30.44;31.64;96894.08;107563;1268;35311;-79
2022/06/16 06:42:32;;;;;;;4.60;1.90;;;;;;;30.96;32.44;96895.80;107223;1268;178872;-79
2022/06/16 06:45:04;;;;;;;2.80;2.20;;;;;;;31.47;31.14;96895.00;107660;1267;31090;-79
2022/06/16 06:47:36;;;;;;;3.40;2.10;;;;;;;31.57;30.79;96896.55;107086;1268;174018;-80
2022/06/16 06:50:09;;;;;;;3.10;2.10;;;;;;;31.70;30.73;96895.69;107444;1267;74865;-80
2022/06/16 06:52:41;;;;;;;2.80;1.80;;;;;;;32.61;31.05;96898.09;107125;1268;137899;-79
2022/06/16 06:55:12;;;;;;;2.50;1.80;;;;;;;33.76;29.65;96893.50;107586;1268;71951;-79
2022/06/16 06:57:44;;;;;;;4.30;2.30;;;;;;;34.22;28.84;96894.66;107514;1267;119819;-79
2022/06/16 07:00:18;;;;;;;3.20;2.00;;;;;;;33.96;26.99;96888.27;107274;1268;140011;-79
2022/06/16 07:02:49;;;;;;;2.70;1.60;;;;;;;33.44;28.13;96890.98;107752;1267;39757;-79
2022/06/16 07:05:21;;;;;;;2.10;1.60;;;;;;;33.39;27.92;96888.18;107358;1268;137415;-79
2022/06/16 07:07:58;;;;;;;1.80;1.60;;;;;;;33.63;27.23;96885.75;107518;1268;72438;-80
2022/06/16 07:10:29;;;;;;;2.60;1.60;;;;;;;33.46;27.47;96883.64;106306;1268;1453545;-80
2022/06/16 07:13:01;;;;;;;2.00;1.60;;;;;;;34.68;28.63;96882.95;107705;1268;57382;-80
2022/06/16 07:15:34;;;;;;;2.70;1.60;;;;;;;36.47;26.92;96880.23;107665;1268;38138;-80
2022/06/16 07:18:06;;;;;;;2.50;1.60;;;;;;;37.03;25.65;96875.58;105673;1268;2549181;-79
2022/06/16 07:20:37;;;;;;;2.70;1.50;;;;;;;37.08;25.15;96875.46;107692;1265;37305;-80
2022/06/16 07:23:11;;;;;;;1.90;1.70;;;;;;;37.36;24.55;96875.64;107520;1268;138511;-80
2022/06/16 07:25:43;;;;;;;2.40;1.30;;;;;;;37.90;24.12;96872.36;107607;1268;36901;-80
2022/06/16 07:28:14;;;;;;;2.20;1.80;;;;;;;37.61;23.59;96872.45;107245;1268;137448;-79
2022/06/16 07:30:46;;;;;;;4.20;2.00;;;;;;;38.06;24.21;96867.14;107645;1268;32994;-80
2022/06/16 07:33:17;;;;;;;2.00;1.60;;;;;;;39.28;23.69;96863.50;107362;1268;134221;-80
2022/06/16 07:35:50;;;;;;;2.60;1.60;;;;;;;39.51;22.19;96860.34;107534;1268;110471;-80
2022/06/16 07:38:22;;;;;;;3.00;1.50;;;;;;;38.73;22.04;96854.55;107263;1270;178819;-80
2022/06/16 07:41:30;;;;;;;2.40;1.30;;;;;;;37.98;22.64;96852.06;107601;1270;37970;-78
2022/06/16 07:43:45;;;;;;;2.40;1.50;;;;;;;38.00;23.34;96846.33;107239;1268;158041;-78
2022/06/16 07:46:16;;;;;;;1.90;1.40;;;;;;;39.01;23.14;96844.27;107650;1268;43266;-77
2022/06/16 07:48:48;;;;;;;2.10;1.50;;;;;;;38.73;22.36;96841.34;107126;1270;211322;-78
2022/06/16 07:51:20;;;;;;;3.80;1.50;;;;;;;38.95;22.81;96840.98;107684;1268;34913;-78
2022/06/16 07:53:51;;;;;;;1.90;1.30;;;;;;;39.23;22.42;96842.11;107487;1268;112620;-78
2022/06/16 07:56:22;;;;;;;4.10;1.40;;;;;;;39.92;22.37;96842.20;107636;1268;35022;-78
2022/06/16 07:58:54;;;;;;;3.30;1.50;;;;;;;40.61;22.02;96843.20;107349;1269;109278;-79
2022/06/16 08:01:25;;;;;;;2.00;1.20;;;;;;;40.09;21.27;96844.91;107614;1268;58880;-78
2022/06/16 08:03:57;;;;;;;2.60;1.20;;;;;;;40.19;21.46;96847.29;106047;1268;1855410;-78
2022/06/16 08:06:28;;;;;;;2.70;1.20;;;;;;;41.05;21.13;96843.81;107665;1268;32193;-78
2022/06/16 08:09:00;;;;;;;1.40;1.30;;;;;;;41.47;21.14;96838.59;107501;1268;107531;-78
2022/06/16 08:14:21;;;;;;;2.40;1.30;;;;;;;40.53;19.99;96839.39;107612;1270;39410;-79
2022/06/16 08:16:53;;;;;;;1.90;1.30;;;;;;;39.87;18.94;96837.42;107003;1268;143660;-78
2022/06/16 08:19:24;;;;;;;2.00;1.20;;;;;;;39.22;20.04;96836.11;107278;1268;104326;-78
2022/06/16 08:21:55;;;;;;;2.30;1.40;;;;;;;38.64;19.88;96834.35;106963;1268;140743;-78
2022/06/16 08:24:27;;;;;;;2.90;1.40;;;;;;;38.67;21.01;96832.94;107164;1268;103610;-78
2022/06/16 08:26:58;;;;;;;1.80;1.10;;;;;;;38.92;20.16;96835.49;106896;1271;149124;-78
2022/06/16 08:29:29;;;;;;;1.80;1.00;;;;;;;38.57;19.51;96835.33;107234;1268;91442;-78
2022/06/16 08:32:01;;;;;;;2.50;1.10;;;;;;;37.98;19.99;96835.67;107154;1268;112836;-78
2022/06/16 08:34:33;;;;;;;1.80;1.00;;;;;;;37.29;20.27;96838.59;107060;1268;165198;-78
2022/06/16 08:37:05;;;;;;;1.80;1.10;;;;;;;36.84;20.55;96842.90;107174;1268;90363;-79
2022/06/16 08:39:36;;;;;;;1.50;1.10;;;;;;;37.19;20.80;96838.48;107316;1268;119460;-78
2022/06/16 08:42:17;;;;;;;1.90;1.00;;;;;;;37.51;20.68;96840.95;107274;1268;115668;-78
2022/06/16 08:44:57;;;;;;;1.60;1.00;;;;;;;37.71;20.27;96835.17;106965;1268;135299;-78
2022/06/16 08:47:39;;;;;;;2.10;1.10;;;;;;;37.53;19.88;96833.20;106959;1268;170195;-79
2022/06/16 08:50:23;;;;;;;1.70;1.10;;;;;;;36.63;21.26;96831.41;107448;1270;104647;-77
2022/06/16 08:53:10;;;;;;;2.30;1.00;;;;;;;34.65;20.92;96833.59;107608;1268;37163;-79
2022/06/16 08:55:53;;;;;;;2.40;1.20;;;;;;;31.24;23.91;96831.05;107324;1268;124725;-79
2022/06/16 08:58:38;;;;;;;4.80;1.60;;;;;;;29.36;26.34;96830.84;107642;1268;37940;-79
2022/06/16 09:01:14;;;;;;;2.40;1.30;;;;;;;28.67;27.97;96823.64;107481;1270;84609;-79
2022/06/16 09:03:53;;;;;;;1.80;1.30;;;;;;;29.00;28.37;96819.16;107569;1268;63619;-79
2022/06/16 09:06:34;;;;;;;3.40;1.30;;;;;;;29.56;28.66;96820.25;107510;1270;65688;-79
2022/06/16 09:10:14;;;;;;;2.50;1.40;;;;;;;29.53;27.92;96817.70;107745;1268;44095;-80
2022/06/16 09:12:24;;;;;;;2.20;1.30;;;;;;;29.32;28.85;96816.91;107319;1270;160398;-79
2022/06/16 09:15:13;;;;;;;1.70;1.20;;;;;;;29.12;28.48;96813.69;107636;1268;76047;-79
2022/06/16 09:17:54;;;;;;;2.10;1.30;;;;;;;28.78;29.12;96808.98;107361;1268;123133;-79
2022/06/16 09:20:33;;;;;;;2.40;1.00;;;;;;;28.94;29.79;96816.21;107684;1267;41861;-79
2022/06/16 09:23:21;;;;;;;2.40;1.40;;;;;;;28.73;28.94;96814.12;107529;1268;119236;-79
2022/06/16 09:26:04;;;;;;;2.40;1.20;;;;;;;28.08;28.75;96814.48;107620;1268;33230;-79
2022/06/16 09:28:41;;;;;;;3.10;1.40;;;;;;;27.25;29.68;96821.05;107512;1270;89817;-79
2022/06/16 09:31:16;;;;;;;1.70;1.40;;;;;;;27.46;31.58;96813.11;107537;1268;146697;-79
2022/06/16 09:33:52;;;;;;;3.00;1.30;;;;;;;27.70;30.71;96814.78;107344;1267;134024;-79
2022/06/16 09:36:28;;;;;;;6.10;1.70;;;;;;;27.11;30.97;96821.26;107689;1268;33051;-79
2022/06/16 09:39:05;;;;;;;3.10;1.50;;;;;;;26.76;31.84;96817.86;107397;1270;118948;-79
2022/06/16 09:44:38;;;;;;;2.40;1.70;;;;;;;26.79;31.91;96812.66;107653;1268;114551;-79
2022/06/16 09:47:14;;;;;;;3.80;1.50;;;;;;;27.13;31.93;96808.23;107693;1269;33318;-78
2022/06/16 09:49:51;;;;;;;2.00;1.50;;;;;;;27.28;31.46;96809.85;107350;1268;159561;-79
2022/06/16 09:52:27;;;;;;;4.00;1.90;;;;;;;27.06;31.30;96811.36;107632;1268;123165;-78
2022/06/16 09:55:04;;;;;;;3.30;1.60;;;;;;;27.09;32.01;96808.13;107221;1270;155740;-78
2022/06/16 09:57:41;;;;;;;4.30;1.80;;;;;;;26.89;31.64;96808.60;107782;1268;35565;-78
2022/06/16 10:00:17;;;;;;;2.30;1.50;;;;;;;26.60;32.16;96809.96;107280;1268;129303;-78
2022/06/16 10:02:55;;;;;;;3.40;1.80;;;;;;;26.90;32.49;96803.80;107707;1267;30932;-78
2022/06/16 10:05:37;;;;;;;3.00;1.30;;;;;;;27.27;33.23;96805.65;107359;1267;113401;-78
2022/06/16 10:08:17;;;;;;;1.90;1.70;;;;;;;27.42;32.67;96802.36;107644;1268;34790;-78
2022/06/16 10:10:56;;;;;;;3.00;1.60;;;;;;;27.35;31.53;96801.88;107091;1271;126934;-78
2022/06/16 10:13:32;;;;;;;5.80;1.70;;;;;;;26.95;32.60;96804.99;107624;1267;97234;-78
2022/06/16 10:16:11;;;;;;;2.60;1.60;;;;;;;26.88;32.42;96805.10;107541;1268;113333;-79
2022/06/16 10:18:44;;;;;;;2.50;1.40;;;;;;;26.93;32.65;96805.29;107622;1271;39074;-79
2022/06/16 10:21:17;;;;;;;2.00;1.80;;;;;;;26.62;32.38;96800.42;107411;1270;144132;-79
2022/06/16 10:23:53;;;;;;;2.20;1.70;;;;;;;26.09;33.38;96806.73;107455;1268;114507;-79
2022/06/16 10:26:25;;;;;;;1.90;1.60;;;;;;;26.00;33.67;96805.17;107674;1268;41941;-79
2022/06/16 10:29:19;;;;;;;2.10;1.80;;;;;;;26.09;34.06;96801.22;107322;1268;134807;-79
2022/06/16 10:31:53;;;;;;;4.60;1.80;;;;;;;26.09;33.71;96799.51;107602;1268;108609;-79
2022/06/16 10:34:32;;;;;;;2.40;2.10;;;;;;;26.05;33.46;96798.94;107266;1269;162934;-78
2022/06/16 10:37:14;;;;;;;4.40;1.80;;;;;;;26.12;33.18;96791.92;107612;1269;101538;-78
2022/06/16 10:39:48;;;;;;;3.60;2.00;;;;;;;26.24;33.63;96791.09;107300;1268;133064;-77
2022/06/16 10:42:24;;;;;;;3.30;2.20;;;;;;;26.24;33.54;96791.95;107587;1267;56659;-78
2022/06/16 10:45:09;;;;;;;5.10;1.90;;;;;;;26.56;33.98;96789.42;107514;1271;101603;-78
2022/06/16 10:47:48;;;;;;;4.50;2.30;;;;;;;26.91;33.41;96783.67;107628;1268;37898;-78
2022/06/16 10:50:26;;;;;;;2.10;1.90;;;;;;;27.01;33.23;96782.58;107376;1268;149381;-79
2022/06/16 10:53:04;;;;;;;4.40;2.10;;;;;;;27.04;34.07;96782.67;107272;1268;159041;-78
2022/06/16 10:55:45;;;;;;;3.20;1.80;;;;;;;27.15;33.47;96782.50;107660;1268;37278;-78
2022/06/16 10:58:30;;;;;;;3.50;2.00;;;;;;;27.07;33.70;96783.94;107356;1268;154569;-79
2022/06/16 11:01:15;;;;;;;2.90;1.60;;;;;;;27.35;34.55;96778.54;107603;1268;73786;-79
2022/06/16 11:03:51;;;;;;;3.20;1.80;;;;;;;27.59;33.11;96782.11;106166;1267;1815178;-77
2022/06/16 11:06:25;;;;;;;4.80;1.80;;;;;;;27.63;33.23;96778.10;107678;1268;34738;-78
2022/06/16 11:09:04;;;;;;;1.70;1.40;;;;;;;27.60;32.88;96776.05;107344;1268;137153;-77
2022/06/16 11:11:42;;;;;;;2.80;1.70;;;;;;;27.64;33.06;96776.23;107751;1268;36956;-78
2022/06/16 11:14:18;;;;;;;3.40;2.00;;;;;;;27.42;32.37;96769.38;107294;1270;167377;-78
2022/06/16 11:16:54;;;;;;;4.20;2.00;;;;;;;27.46;33.40;96762.00;107612;1268;45044;-78
2022/06/16 11:19:34;;;;;;;2.70;1.90;;;;;;;27.66;34.60;96760.59;107383;1268;126782;-78
2022/06/16 11:22:16;;;;;;;5.10;1.80;;;;;;;27.94;34.59;96762.66;107651;1268;51143;-78
2022/06/16 11:24:57;;;;;;;2.60;1.80;;;;;;;28.01;34.38;96763.70;106078;1268;1842038;-77
2022/06/16 11:27:29;;;;;;;2.40;2.00;;;;;;;27.81;33.67;96762.50;107541;1269;46383;-78
2022/06/16 11:30:01;;;;;;;2.00;1.70;;;;;;;27.63;34.12;96765.96;107390;1268;159453;-78
2022/06/16 11:32:38;;;;;;;2.70;2.00;;;;;;;27.48;33.53;96764.04;107687;1269;32754;-78
2022/06/16 11:35:12;;;;;;;2.70;2.00;;;;;;;27.31;33.26;96764.75;107023;1268;216890;-77
2022/06/16 11:37:54;;;;;;;3.70;1.90;;;;;;;27.24;33.69;96762.01;107280;1271;71482;-77
2022/06/16 11:40:45;;;;;;;2.80;1.70;;;;;;;27.34;34.53;96762.27;107266;1271;160773;-77
2022/06/16 11:43:26;;;;;;;;;;;;;;;27.30;34.97;96759.55;107682;1269;35067;-77
2022/06/16 11:46:08;;;;;;;4.00;2.10;;;;;;;27.20;35.71;96754.77;107447;1268;100606;-77
2022/06/16 11:48:49;;;;;;;1.80;1.70;;;;;;;27.18;35.92;96750.16;107613;1271;41498;-77
2022/06/16 11:51:28;;;;;;;3.70;1.70;;;;;;;27.19;36.28;96745.02;107397;1271;84236;-77
2022/06/16 11:54:12;;;;;;;4.10;2.20;;;;;;;27.28;36.18;96743.81;107602;1271;33964;-78
2022/06/16 11:56:49;;;;;;;2.90;1.60;;;;;;;27.22;36.10;96744.34;107270;1268;212238;-77
2022/06/16 11:59:57;;;;;;;3.00;1.60;;;;;;;27.19;36.42;96745.83;107584;1268;73487;-77
2022/06/16 12:02:51;;;;;;;2.20;2.00;;;;;;;27.18;35.87;96740.37;105091;1267;1988351;-77
2022/06/16 12:05:33;;;;;;;5.00;1.90;;;;;;;27.19;36.14;96738.34;107642;1268;34331;-77
2022/06/16 12:08:26;;;;;;;4.10;1.90;;;;;;;27.07;36.82;96735.66;106077;1268;2250064;-77
2022/06/16 12:11:03;;;;;;;3.20;1.90;;;;;;;27.14;37.23;96733.11;107653;1268;36364;-77
2022/06/16 12:13:49;;;;;;;4.00;1.90;;;;;;;27.30;37.70;96731.30;107389;1271;163732;-78